Weather History for Eastsound, WA

Change the Weather History Date:

Sunday, April 13, 2014

  Actual Average (KBLI) Record (KBLI)
Temperature  
Mean Temperature 49 °F 48 °F  
Max Temperature 57 °F 56 °F 71 °F (1980)
Min Temperature 41 °F 40 °F 29 °F (1981)
Degree Days  
Heating Degree Days 16 17  
Month to date heating degree days 230  
Cooling Degree Days 0 0  
Month to date cooling degree days 0  
Year to date cooling degree days 0  
Moisture  
Dew Point 34 °F    
Average Humidity 59    
Maximum Humidity 87    
Minimum Humidity 40    
Precipitation  
Precipitation 0.00 in 0.10 in 0.76 in (1952)
Month to date precipitation 1.27  
Year to date precipitation 12.18  
Sea Level Pressure  
Sea Level Pressure 30.26 in    
Wind  
Wind Speed 2 mph (North)    
Max Wind Speed 8 mph    
Max Gust Speed -    
Visibility 10 miles    
Events Rain    
T = Trace of Precipitation, MM = Missing Value Source: NWS Daily Summary

Daily Weather History Graph

Daily Weather History Graph

Search for Another Location

Airport:

Trip Planner

Search our weather history database for the weather conditions in past years. The results will help you decide how hot, cold, wet, or windy it might be!

Date:

Astronomy

Apr. 13, 2014 Rise Set
Actual Time 6:24 AM PDT 8:00 PM PDT
Civil Twilight 5:51 AM PDT 8:33 PM PDT
Nautical Twilight 5:11 AM PDT 9:13 PM PDT
Astronomical Twilight 4:27 AM PDT 9:57 PM PDT
Moon 6:38 PM PDT (4/13) 5:34 AM PDT (4/13)
Length of Visible Light 14h 41m
Length of Day
13h 35m
Waxing Gibbous, 97% of the Moon is Illuminated
Apr 13
Waxing Gibbous
Apr 15
Full
Apr 22
Last Quarter
Apr 28
New
May 6
First Quarter

Hourly Weather History & Observations

Time (PDT) Temp. Dew Point Humidity Pressure Visibility Wind Dir Wind Speed Gust Speed Precip Events Conditions
12:15 AM 41.0 °F 37.4 °F 87% 30.20 in 10.0 mi Calm Calm - N/A   Clear
12:35 AM 41.0 °F 35.6 °F 81% 30.20 in 10.0 mi Calm Calm - N/A   Clear
12:55 AM 41.0 °F 35.6 °F 81% 30.20 in 10.0 mi Calm Calm - N/A   Clear
1:15 AM 41.0 °F 35.6 °F 81% 30.21 in 10.0 mi Calm Calm - N/A   Clear
1:35 AM 41.0 °F 35.6 °F 81% 30.21 in 10.0 mi Calm Calm - N/A   Clear
2:15 AM 41.0 °F 37.4 °F 87% 30.22 in 10.0 mi Calm Calm - N/A   Clear
2:35 AM 41.0 °F 37.4 °F 87% 30.23 in 10.0 mi Calm Calm - N/A   Clear
2:55 AM 41.0 °F 37.4 °F 87% 30.23 in 10.0 mi Calm Calm - N/A   Clear
3:15 AM 41.0 °F 37.4 °F 87% 30.24 in 10.0 mi Calm Calm - N/A   Clear
3:35 AM 42.8 °F 39.2 °F 87% 30.24 in 10.0 mi Calm Calm - N/A   Clear
3:55 AM 44.6 °F 39.2 °F 81% 30.24 in 10.0 mi Calm Calm - N/A   Clear
4:15 AM 48.2 °F 33.8 °F 58% 30.25 in 10.0 mi Calm Calm - N/A   Clear
4:35 AM 48.2 °F 32.0 °F 54% 30.26 in 10.0 mi NNE 3.5 mph - N/A   Clear
4:55 AM 48.2 °F 32.0 °F 54% 30.26 in 10.0 mi North 4.6 mph - N/A   Clear
5:15 AM 50.0 °F 28.4 °F 43% 30.26 in 10.0 mi NE 5.8 mph - N/A   Clear
5:35 AM 48.2 °F 28.4 °F 46% 30.26 in 10.0 mi NE 4.6 mph - N/A   Clear
5:55 AM 48.2 °F 28.4 °F 46% 30.27 in 10.0 mi Calm Calm - N/A   Clear
6:15 AM 48.2 °F 32.0 °F 54% 30.27 in 10.0 mi Calm Calm - N/A   Clear
6:35 AM 48.2 °F 32.0 °F 54% 30.27 in 10.0 mi NNE 4.6 mph - N/A   Clear
6:55 AM 48.2 °F 28.4 °F 46% 30.28 in 10.0 mi ENE 4.6 mph - N/A   Clear
7:15 AM 48.2 °F 26.6 °F 43% 30.28 in 10.0 mi ENE 3.5 mph - N/A   Clear
7:35 AM 48.2 °F 26.6 °F 43% 30.29 in 10.0 mi ENE 4.6 mph - N/A   Clear
7:55 AM 48.2 °F 26.6 °F 43% 30.30 in 10.0 mi NE 3.5 mph - N/A   Clear
8:15 AM 48.2 °F 26.6 °F 43% 30.30 in 10.0 mi NE 5.8 mph - N/A   Clear
8:40 AM 50.0 °F 26.6 °F 40% 30.31 in 10.0 mi ENE 4.6 mph - N/A   Clear
8:55 AM 50.0 °F 28.4 °F 43% 30.32 in 10.0 mi Calm Calm - N/A   Clear
9:15 AM 50.0 °F 28.4 °F 43% 30.32 in 10.0 mi NNE 3.5 mph - N/A   Clear
9:35 AM 50.0 °F 32.0 °F 50% 30.33 in 10.0 mi North 4.6 mph - N/A   Clear
9:55 AM 50.0 °F 32.0 °F 50% 30.33 in 10.0 mi North 6.9 mph - N/A   Clear
10:15 AM 50.0 °F 32.0 °F 50% 30.33 in 10.0 mi NNW 4.6 mph - N/A   Clear
10:35 AM 51.8 °F 32.0 °F 47% 30.33 in 10.0 mi North 3.5 mph - N/A   Clear
10:55 AM 51.8 °F 32.0 °F 47% 30.33 in 10.0 mi NNW 5.8 mph - N/A   Clear
11:15 AM 53.6 °F 33.8 °F 47% 30.33 in 10.0 mi NNW 5.8 mph - N/A   Clear
11:35 AM 53.6 °F 35.6 °F 51% 30.33 in 10.0 mi NNW 8.1 mph - N/A   Clear
11:55 AM 53.6 °F 35.6 °F 51% 30.33 in 10.0 mi North 4.6 mph - N/A   Clear
12:15 PM 51.8 °F 33.8 °F 50% 30.33 in 10.0 mi North 6.9 mph - N/A   Clear
12:35 PM 53.6 °F 35.6 °F 51% 30.33 in 10.0 mi NNW 6.9 mph - N/A   Clear
12:55 PM 53.6 °F 35.6 °F 51% 30.33 in 10.0 mi NNW 6.9 mph - N/A   Clear
1:15 PM 55.4 °F 35.6 °F 47% 30.32 in 10.0 mi NNW 8.1 mph - N/A   Clear
1:35 PM 55.4 °F 33.8 °F 44% 30.32 in 10.0 mi North 6.9 mph - N/A   Clear
1:55 PM 55.4 °F 32.0 °F 41% 30.32 in 10.0 mi North 6.9 mph - N/A   Clear
2:15 PM 55.4 °F 32.0 °F 41% 30.31 in 10.0 mi North 8.1 mph - N/A   Clear
2:35 PM 55.4 °F 33.8 °F 44% 30.31 in 10.0 mi North 5.8 mph - N/A   Clear
2:55 PM 55.4 °F 35.6 °F 47% 30.30 in 9.0 mi North 4.6 mph - N/A   Clear
3:15 PM 55.4 °F 35.6 °F 47% 30.30 in 10.0 mi North 5.8 mph - N/A   Clear
3:35 PM 55.4 °F 37.4 °F 51% 30.29 in 10.0 mi North 5.8 mph - N/A   Clear
3:55 PM 55.4 °F 39.2 °F 54% 30.28 in 10.0 mi North 3.5 mph - N/A   Clear
4:15 PM 57.2 °F 39.2 °F 51% 30.28 in 9.0 mi NNW 5.8 mph - N/A   Clear
4:35 PM 55.4 °F 39.2 °F 54% 30.27 in 10.0 mi NNW 5.8 mph - N/A   Clear
4:55 PM 55.4 °F 39.2 °F 54% 30.26 in 10.0 mi NNW 5.8 mph - N/A   Clear
5:15 PM 55.4 °F 35.6 °F 47% 30.26 in 10.0 mi NNW 4.6 mph - N/A   Clear
5:35 PM 55.4 °F 37.4 °F 51% 30.25 in 9.0 mi North 3.5 mph - N/A   Clear
5:55 PM 55.4 °F 37.4 °F 51% 30.25 in 9.0 mi NNW 4.6 mph - N/A   Clear
6:15 PM 55.4 °F 37.4 °F 51% 30.24 in 9.0 mi Calm Calm - N/A   Clear
6:35 PM 55.4 °F 37.4 °F 51% 30.24 in 10.0 mi NNW 4.6 mph - N/A Rain Light Rain
6:55 PM 55.4 °F 37.4 °F 51% 30.23 in 9.0 mi Calm Calm - N/A   Clear
7:15 PM 53.6 °F 37.4 °F 54% 30.22 in 10.0 mi Calm Calm - N/A   Clear
7:55 PM 48.2 °F 37.4 °F 66% 30.21 in 10.0 mi Calm Calm - N/A   Clear
8:15 PM 48.2 °F 37.4 °F 66% 30.21 in 10.0 mi Calm Calm - N/A   Clear
8:35 PM 46.4 °F 37.4 °F 71% 30.20 in 10.0 mi Calm Calm - N/A   Clear
8:55 PM 44.6 °F 37.4 °F 76% 30.21 in 10.0 mi Calm Calm - N/A   Clear
9:15 PM 44.6 °F 37.4 °F 76% 30.21 in 10.0 mi Calm Calm - N/A   Clear
9:35 PM 44.6 °F 39.2 °F 81% 30.21 in 10.0 mi Calm Calm - N/A   Clear
9:55 PM 44.6 °F 37.4 °F 76% 30.20 in 10.0 mi Calm Calm - N/A   Clear
10:15 PM 44.6 °F 37.4 °F 76% 30.20 in 10.0 mi Calm Calm - N/A   Clear
10:35 PM 42.8 °F 37.4 °F 81% 30.20 in 10.0 mi Calm Calm - N/A   Clear
10:55 PM 42.8 °F 35.6 °F 76% 30.20 in 10.0 mi Calm Calm - N/A   Clear
11:15 PM 41.0 °F 35.6 °F 81% 30.19 in 10.0 mi Calm Calm - N/A   Clear
11:35 PM 41.0 °F 33.8 °F 76% 30.19 in 10.0 mi Calm Calm - N/A   Clear
11:55 PM 41.0 °F 32.0 °F 70% 30.18 in 10.0 mi Calm Calm - N/A   Clear